EXS24L LEPA-EGNM
Flight info
| Callsign | EXS24L |
|---|---|
| Flight time | 2h 8m |
| Altitude | 38000 |
| Route | DRAGO DCT PAPOS DCT UMURE N863 GIROM DCT AGN DCT SECHE DCT UVELI DCT CNA DCT TUPAR UN861 ANG DCT AKIKI UN867 AVANT UM184 HEMEL T420 TNT N57 DENBY DCT LBA |
| Aircraft | B738/M-SDE2E3FGHIRWXY/LB1 |
Departure
| Time | 2026-05-04 08:24 |
|---|---|
| Airport | Palma de Mallorca Airport (LEPA) |
Arrival
| Time | 2026-05-04 10:32 |
|---|---|
| Airport | Leeds Bradford Airport (EGNM) |
| Time | Latitude | Longitude | Altitude | Speed | Heading |
|---|---|---|---|---|---|
| 2026-05-04 08:10 | 39.55352 | 2.73090 | 29 ft | 0 kts | 175° |
| 2026-05-04 08:19 | 39.55362 | 2.73275 | 29 ft | 11 kts | 59° |
| 2026-05-04 08:19 | 39.55401 | 2.73356 | 29 ft | 10 kts | 58° |
| 2026-05-04 08:20 | 39.55439 | 2.73436 | 29 ft | 12 kts | 58° |
| 2026-05-04 08:20 | 39.55487 | 2.73536 | 29 ft | 12 kts | 58° |
| 2026-05-04 08:20 | 39.55533 | 2.73572 | 29 ft | 7 kts | 330° |
| 2026-05-04 08:20 | 39.55581 | 2.73535 | 29 ft | 9 kts | 329° |
| 2026-05-04 08:21 | 39.55637 | 2.73502 | 29 ft | 9 kts | 360° |
| 2026-05-04 08:21 | 39.55685 | 2.73565 | 29 ft | 13 kts | 59° |
| 2026-05-04 08:21 | 39.55742 | 2.73683 | 29 ft | 18 kts | 59° |
| 2026-05-04 08:21 | 39.55811 | 2.73830 | 29 ft | 17 kts | 59° |
| 2026-05-04 08:22 | 39.55875 | 2.73913 | 29 ft | 13 kts | 348° |
| 2026-05-04 08:22 | 39.55950 | 2.73857 | 29 ft | 12 kts | 329° |
| 2026-05-04 08:24 | 39.53268 | 2.68194 | 2304 ft | 201 kts | 236° |
| 2026-05-04 08:24 | 39.52708 | 2.66475 | 2614 ft | 226 kts | 265° |
| 2026-05-04 08:24 | 39.52864 | 2.64381 | 2979 ft | 247 kts | 276° |
| 2026-05-04 08:24 | 39.53087 | 2.62107 | 3581 ft | 258 kts | 275° |
| 2026-05-04 08:25 | 39.53301 | 2.59798 | 4546 ft | 258 kts | 274° |
| 2026-05-04 08:25 | 39.53506 | 2.57479 | 5428 ft | 261 kts | 274° |
| 2026-05-04 08:25 | 39.53705 | 2.55127 | 6277 ft | 265 kts | 274° |
| 2026-05-04 08:25 | 39.53902 | 2.52734 | 7086 ft | 269 kts | 274° |
| 2026-05-04 08:26 | 39.54160 | 2.50328 | 7955 ft | 272 kts | 284° |
| 2026-05-04 08:27 | 39.65569 | 2.38011 | 12421 ft | 341 kts | 320° |
| 2026-05-04 08:28 | 39.67497 | 2.36204 | 13226 ft | 342 kts | 320° |
| 2026-05-04 08:28 | 39.69429 | 2.34384 | 13988 ft | 345 kts | 319° |
| 2026-05-04 08:28 | 39.71377 | 2.32542 | 14671 ft | 347 kts | 319° |
| 2026-05-04 08:28 | 39.73336 | 2.30684 | 15345 ft | 351 kts | 319° |
| 2026-05-04 08:29 | 39.75316 | 2.28803 | 16023 ft | 354 kts | 318° |
| 2026-05-04 08:29 | 39.77315 | 2.26900 | 16643 ft | 359 kts | 318° |
| 2026-05-04 08:29 | 39.79336 | 2.24975 | 17293 ft | 362 kts | 318° |
| 2026-05-04 08:31 | 39.94053 | 2.10915 | 21221 ft | 387 kts | 317° |
| 2026-05-04 08:33 | 40.09633 | 1.95949 | 24581 ft | 408 kts | 316° |
| 2026-05-04 08:33 | 40.11926 | 1.93740 | 25001 ft | 410 kts | 316° |
| 2026-05-04 08:35 | 40.28352 | 1.77850 | 27654 ft | 429 kts | 315° |
| 2026-05-04 08:35 | 40.30758 | 1.75515 | 28021 ft | 432 kts | 315° |
| 2026-05-04 08:35 | 40.33179 | 1.73164 | 28398 ft | 433 kts | 315° |
| 2026-05-04 08:35 | 40.35603 | 1.70808 | 28760 ft | 435 kts | 315° |
| 2026-05-04 08:37 | 40.50392 | 1.56380 | 30625 ft | 447 kts | 315° |
| 2026-05-04 08:37 | 40.52889 | 1.53937 | 30986 ft | 446 kts | 315° |
| 2026-05-04 08:37 | 40.55365 | 1.51516 | 31435 ft | 443 kts | 314° |
| 2026-05-04 08:38 | 40.57834 | 1.49095 | 31804 ft | 442 kts | 314° |
| 2026-05-04 08:38 | 40.60302 | 1.46673 | 32119 ft | 443 kts | 315° |
| 2026-05-04 08:38 | 40.62914 | 1.44456 | 32437 ft | 452 kts | 323° |
| 2026-05-04 08:40 | 40.83606 | 1.33668 | 34625 ft | 455 kts | 329° |
| 2026-05-04 08:40 | 40.86504 | 1.32146 | 34862 ft | 454 kts | 329° |
| 2026-05-04 08:40 | 40.89478 | 1.30581 | 35126 ft | 453 kts | 329° |
| 2026-05-04 08:41 | 40.92407 | 1.29038 | 35392 ft | 453 kts | 329° |
| 2026-05-04 08:41 | 40.95341 | 1.27489 | 35526 ft | 456 kts | 329° |
| 2026-05-04 08:41 | 40.98249 | 1.25955 | 35723 ft | 456 kts | 329° |
| 2026-05-04 08:41 | 41.01184 | 1.24409 | 35984 ft | 455 kts | 329° |
| 2026-05-04 08:42 | 41.04138 | 1.22847 | 35953 ft | 459 kts | 329° |
| 2026-05-04 08:42 | 41.10070 | 1.19712 | 35959 ft | 459 kts | 329° |
| 2026-05-04 08:43 | 41.16157 | 1.16950 | 35963 ft | 472 kts | 341° |
| 2026-05-04 08:43 | 41.22798 | 1.16128 | 35970 ft | 483 kts | 349° |
| 2026-05-04 08:44 | 41.29502 | 1.15583 | 35969 ft | 483 kts | 348° |
| 2026-05-04 08:46 | 41.56339 | 1.12795 | 36013 ft | 484 kts | 348° |
| 2026-05-04 08:46 | 41.63055 | 1.12050 | 35999 ft | 484 kts | 348° |
| 2026-05-04 08:47 | 41.69750 | 1.11306 | 35987 ft | 483 kts | 348° |
| 2026-05-04 08:47 | 41.76457 | 1.10592 | 35982 ft | 483 kts | 348° |
| 2026-05-04 08:48 | 41.83150 | 1.09897 | 35981 ft | 483 kts | 348° |
| 2026-05-04 08:48 | 41.89841 | 1.09198 | 35968 ft | 482 kts | 348° |
| 2026-05-04 08:49 | 41.96517 | 1.08494 | 35969 ft | 481 kts | 348° |
| 2026-05-04 08:50 | 42.19836 | 1.06011 | 36025 ft | 482 kts | 349° |
| 2026-05-04 08:51 | 42.26521 | 1.05274 | 36013 ft | 481 kts | 349° |
| 2026-05-04 08:51 | 42.33184 | 1.04539 | 36003 ft | 480 kts | 349° |
| 2026-05-04 08:52 | 42.39835 | 1.03805 | 36000 ft | 479 kts | 349° |
| 2026-05-04 08:52 | 42.46476 | 1.03075 | 36003 ft | 478 kts | 349° |
| 2026-05-04 08:54 | 42.72912 | 1.00202 | 35991 ft | 476 kts | 349° |
| 2026-05-04 08:55 | 42.79515 | 0.99480 | 35977 ft | 476 kts | 349° |
| 2026-05-04 08:55 | 42.86168 | 0.98749 | 35972 ft | 477 kts | 349° |
| 2026-05-04 09:01 | 43.54961 | 0.91120 | 35967 ft | 480 kts | 350° |
| 2026-05-04 09:01 | 43.61622 | 0.90372 | 35961 ft | 480 kts | 350° |
| 2026-05-04 09:02 | 43.68266 | 0.89602 | 35966 ft | 478 kts | 348° |
| 2026-05-04 09:02 | 43.71493 | 0.88697 | 35955 ft | 469 kts | 336° |
| 2026-05-04 09:02 | 43.74557 | 0.87202 | 35977 ft | 466 kts | 334° |
| 2026-05-04 09:03 | 43.80604 | 0.84013 | 35963 ft | 465 kts | 333° |
| 2026-05-04 09:03 | 43.86655 | 0.80847 | 35977 ft | 466 kts | 334° |
| 2026-05-04 09:04 | 43.92749 | 0.77728 | 35961 ft | 467 kts | 334° |
| 2026-05-04 09:04 | 43.98849 | 0.74628 | 35970 ft | 468 kts | 334° |
| 2026-05-04 09:05 | 44.04965 | 0.71514 | 35978 ft | 469 kts | 335° |
| 2026-05-04 09:05 | 44.11090 | 0.68386 | 35972 ft | 470 kts | 335° |
| 2026-05-04 09:06 | 44.17228 | 0.65243 | 35960 ft | 470 kts | 335° |
| 2026-05-04 09:08 | 44.41767 | 0.52606 | 35952 ft | 469 kts | 335° |
| 2026-05-04 09:08 | 44.47735 | 0.49141 | 35952 ft | 466 kts | 330° |
| 2026-05-04 09:09 | 44.53569 | 0.45207 | 35948 ft | 465 kts | 329° |
| 2026-05-04 09:09 | 44.59436 | 0.41216 | 35941 ft | 466 kts | 329° |
| 2026-05-04 09:10 | 44.65248 | 0.37314 | 35965 ft | 467 kts | 330° |
| 2026-05-04 09:10 | 44.71121 | 0.33392 | 35951 ft | 467 kts | 330° |
| 2026-05-04 09:11 | 44.76998 | 0.29462 | 35933 ft | 468 kts | 330° |
| 2026-05-04 09:11 | 44.82876 | 0.25519 | 35933 ft | 468 kts | 330° |
| 2026-05-04 09:12 | 44.88761 | 0.21561 | 35947 ft | 468 kts | 330° |
| 2026-05-04 09:14 | 45.12293 | 0.05651 | 35949 ft | 469 kts | 330° |
| 2026-05-04 09:14 | 45.18180 | 0.01651 | 35946 ft | 469 kts | 330° |
| 2026-05-04 09:15 | 45.24060 | -0.02355 | 35964 ft | 470 kts | 330° |
| 2026-05-04 09:15 | 45.29953 | -0.06378 | 35960 ft | 470 kts | 330° |
| 2026-05-04 09:17 | 45.56435 | -0.24578 | 35881 ft | 471 kts | 330° |
| 2026-05-04 09:18 | 45.59387 | -0.26619 | 35618 ft | 470 kts | 330° |
| 2026-05-04 09:18 | 45.62271 | -0.28612 | 35366 ft | 465 kts | 330° |
| 2026-05-04 09:18 | 45.65183 | -0.30625 | 35129 ft | 465 kts | 331° |
| 2026-05-04 09:18 | 45.68181 | -0.32395 | 34890 ft | 469 kts | 337° |
| 2026-05-04 09:19 | 45.71286 | -0.33849 | 34667 ft | 470 kts | 339° |
| 2026-05-04 09:19 | 45.74418 | -0.35205 | 34534 ft | 470 kts | 340° |
| 2026-05-04 09:19 | 45.80711 | -0.37896 | 34707 ft | 476 kts | 340° |
| 2026-05-04 09:20 | 45.83883 | -0.39288 | 34921 ft | 476 kts | 339° |
| 2026-05-04 09:20 | 45.87041 | -0.40696 | 35207 ft | 474 kts | 339° |
| 2026-05-04 09:20 | 45.90179 | -0.42112 | 35484 ft | 473 kts | 339° |
| 2026-05-04 09:20 | 45.93324 | -0.43540 | 35719 ft | 473 kts | 339° |
| 2026-05-04 09:21 | 45.96460 | -0.44970 | 35925 ft | 474 kts | 339° |
| 2026-05-04 09:21 | 45.99598 | -0.46403 | 36157 ft | 474 kts | 339° |
| 2026-05-04 09:21 | 46.02739 | -0.47837 | 36384 ft | 473 kts | 339° |
| 2026-05-04 09:21 | 46.05878 | -0.49270 | 36605 ft | 473 kts | 339° |
| 2026-05-04 09:22 | 46.09021 | -0.50707 | 36813 ft | 473 kts | 339° |
| 2026-05-04 09:22 | 46.12148 | -0.52137 | 37042 ft | 473 kts | 339° |
| 2026-05-04 09:22 | 46.15291 | -0.53577 | 37247 ft | 473 kts | 339° |
| 2026-05-04 09:22 | 46.18419 | -0.55012 | 37466 ft | 473 kts | 340° |
| 2026-05-04 09:23 | 46.21560 | -0.56454 | 37637 ft | 473 kts | 340° |
| 2026-05-04 09:23 | 46.24695 | -0.57895 | 37835 ft | 473 kts | 340° |
| 2026-05-04 09:23 | 46.27827 | -0.59336 | 37972 ft | 473 kts | 340° |
| 2026-05-04 09:23 | 46.31021 | -0.60597 | 37960 ft | 478 kts | 346° |
| 2026-05-04 09:25 | 46.54168 | -0.61582 | 37970 ft | 475 kts | 0° |
| 2026-05-04 09:25 | 46.57426 | -0.61445 | 37981 ft | 474 kts | 0° |
| 2026-05-04 09:26 | 46.64017 | -0.61200 | 37965 ft | 474 kts | 360° |
| 2026-05-04 09:26 | 46.70609 | -0.60977 | 37968 ft | 474 kts | 360° |
| 2026-05-04 09:27 | 46.77207 | -0.60758 | 37976 ft | 475 kts | 360° |
| 2026-05-04 09:27 | 46.83816 | -0.60536 | 37975 ft | 476 kts | 360° |
| 2026-05-04 09:28 | 46.90445 | -0.60323 | 37972 ft | 477 kts | 358° |
| 2026-05-04 09:28 | 46.97073 | -0.60674 | 37980 ft | 477 kts | 354° |
| 2026-05-04 09:29 | 47.03708 | -0.61328 | 37974 ft | 478 kts | 354° |
| 2026-05-04 09:29 | 47.10354 | -0.61951 | 37970 ft | 479 kts | 355° |
| 2026-05-04 09:30 | 47.17022 | -0.62510 | 37972 ft | 480 kts | 355° |
| 2026-05-04 09:30 | 47.23701 | -0.63043 | 37976 ft | 481 kts | 355° |
| 2026-05-04 09:31 | 47.30377 | -0.63573 | 37975 ft | 481 kts | 355° |
| 2026-05-04 09:31 | 47.37049 | -0.64106 | 37972 ft | 480 kts | 355° |
| 2026-05-04 09:32 | 47.43693 | -0.64641 | 37663 ft | 482 kts | 355° |
| 2026-05-04 09:34 | 47.66964 | -0.66528 | 36012 ft | 487 kts | 355° |
| 2026-05-04 09:34 | 47.70346 | -0.66804 | 35973 ft | 488 kts | 355° |
| 2026-05-04 09:34 | 47.77134 | -0.67356 | 35964 ft | 488 kts | 355° |
| 2026-05-04 09:35 | 47.83901 | -0.67908 | 35974 ft | 486 kts | 355° |
| 2026-05-04 09:35 | 47.90643 | -0.68460 | 35960 ft | 484 kts | 355° |
| 2026-05-04 09:37 | 48.17453 | -0.70673 | 35970 ft | 482 kts | 355° |
| 2026-05-04 09:38 | 48.24106 | -0.71226 | 35978 ft | 482 kts | 355° |
| 2026-05-04 09:38 | 48.30812 | -0.71785 | 35974 ft | 483 kts | 355° |
| 2026-05-04 09:39 | 48.37535 | -0.72346 | 35977 ft | 484 kts | 355° |
| 2026-05-04 09:39 | 48.44260 | -0.72909 | 35979 ft | 485 kts | 355° |
| 2026-05-04 09:40 | 48.51006 | -0.73475 | 35981 ft | 486 kts | 355° |
| 2026-05-04 09:40 | 48.57753 | -0.74043 | 35981 ft | 486 kts | 355° |
| 2026-05-04 09:42 | 48.84794 | -0.76334 | 35986 ft | 486 kts | 355° |
| 2026-05-04 09:43 | 48.91539 | -0.76910 | 35988 ft | 485 kts | 355° |
| 2026-05-04 09:43 | 48.98286 | -0.77487 | 35996 ft | 485 kts | 355° |
| 2026-05-04 09:44 | 49.05031 | -0.78065 | 35984 ft | 485 kts | 355° |
| 2026-05-04 09:46 | 49.30777 | -0.80288 | 36003 ft | 483 kts | 355° |
| 2026-05-04 09:46 | 49.37523 | -0.80875 | 36003 ft | 483 kts | 355° |
| 2026-05-04 09:47 | 49.44240 | -0.81460 | 36004 ft | 483 kts | 355° |
| 2026-05-04 09:49 | 49.71110 | -0.83818 | 36008 ft | 484 kts | 355° |
| 2026-05-04 09:51 | 49.94647 | -0.85844 | 36015 ft | 482 kts | 355° |
| 2026-05-04 09:51 | 50.01304 | -0.86418 | 36021 ft | 482 kts | 355° |
| 2026-05-04 09:52 | 50.07981 | -0.87030 | 36015 ft | 481 kts | 355° |
| 2026-05-04 09:52 | 50.14709 | -0.87632 | 36016 ft | 481 kts | 355° |
| 2026-05-04 09:53 | 50.21345 | -0.88215 | 36017 ft | 480 kts | 355° |
| 2026-05-04 09:53 | 50.28007 | -0.88797 | 36014 ft | 480 kts | 355° |
| 2026-05-04 09:54 | 50.34718 | -0.89385 | 36017 ft | 479 kts | 355° |
| 2026-05-04 09:54 | 50.41382 | -0.89971 | 36016 ft | 479 kts | 355° |
| 2026-05-04 09:55 | 50.48040 | -0.90559 | 36017 ft | 479 kts | 355° |
| 2026-05-04 09:55 | 50.54695 | -0.91148 | 36014 ft | 479 kts | 355° |
| 2026-05-04 09:56 | 50.61340 | -0.91738 | 36012 ft | 478 kts | 355° |
| 2026-05-04 09:56 | 50.67986 | -0.92330 | 36018 ft | 478 kts | 355° |
| 2026-05-04 09:57 | 50.74623 | -0.92923 | 36007 ft | 478 kts | 355° |
| 2026-05-04 09:57 | 50.81260 | -0.93517 | 36007 ft | 477 kts | 355° |
| 2026-05-04 09:58 | 50.87883 | -0.94112 | 36029 ft | 476 kts | 356° |
| 2026-05-04 09:58 | 50.94493 | -0.94467 | 36002 ft | 476 kts | 4° |
| 2026-05-04 10:00 | 51.16255 | -0.82252 | 36014 ft | 475 kts | 21° |
| 2026-05-04 10:00 | 51.19340 | -0.80339 | 36021 ft | 475 kts | 21° |
| 2026-05-04 10:04 | 51.61186 | -0.54212 | 34506 ft | 429 kts | 20° |
| 2026-05-04 10:04 | 51.63959 | -0.52462 | 34130 ft | 427 kts | 20° |
| 2026-05-04 10:04 | 51.66718 | -0.50718 | 33689 ft | 425 kts | 20° |
| 2026-05-04 10:04 | 51.69467 | -0.48979 | 33327 ft | 423 kts | 20° |
| 2026-05-04 10:05 | 51.72190 | -0.47254 | 32942 ft | 420 kts | 20° |
| 2026-05-04 10:05 | 51.74907 | -0.45531 | 32572 ft | 417 kts | 20° |
| 2026-05-04 10:05 | 51.77615 | -0.43913 | 32144 ft | 414 kts | 12° |
| 2026-05-04 10:05 | 51.80428 | -0.43462 | 32067 ft | 398 kts | 359° |
| 2026-05-04 10:06 | 51.83182 | -0.43331 | 31996 ft | 395 kts | 0° |
| 2026-05-04 10:06 | 51.85983 | -0.43132 | 31659 ft | 414 kts | 0° |
| 2026-05-04 10:06 | 51.88923 | -0.42908 | 31336 ft | 432 kts | 0° |
| 2026-05-04 10:08 | 52.07132 | -0.41888 | 30036 ft | 426 kts | 343° |
| 2026-05-04 10:08 | 52.09943 | -0.43179 | 30049 ft | 417 kts | 338° |
| 2026-05-04 10:08 | 52.15418 | -0.46281 | 30052 ft | 418 kts | 336° |
| 2026-05-04 10:09 | 52.20894 | -0.49502 | 30042 ft | 419 kts | 336° |
| 2026-05-04 10:09 | 52.26386 | -0.52763 | 30045 ft | 420 kts | 335° |
| 2026-05-04 10:10 | 52.28992 | -0.54806 | 30046 ft | 413 kts | 324° |
| 2026-05-04 10:10 | 52.31345 | -0.57363 | 30047 ft | 410 kts | 322° |
| 2026-05-04 10:10 | 52.35992 | -0.62663 | 30028 ft | 405 kts | 321° |
| 2026-05-04 10:11 | 52.40559 | -0.67857 | 29527 ft | 396 kts | 322° |
| 2026-05-04 10:11 | 52.42827 | -0.70413 | 28966 ft | 396 kts | 322° |
| 2026-05-04 10:11 | 52.45100 | -0.72967 | 28416 ft | 396 kts | 322° |
| 2026-05-04 10:12 | 52.47373 | -0.75515 | 27963 ft | 394 kts | 322° |
| 2026-05-04 10:12 | 52.49622 | -0.78034 | 27563 ft | 390 kts | 322° |
| 2026-05-04 10:12 | 52.51852 | -0.80532 | 27154 ft | 387 kts | 322° |
| 2026-05-04 10:12 | 52.54071 | -0.83022 | 26740 ft | 385 kts | 323° |
| 2026-05-04 10:13 | 52.56276 | -0.85498 | 26310 ft | 383 kts | 323° |
| 2026-05-04 10:13 | 52.58473 | -0.87969 | 25912 ft | 381 kts | 323° |
| 2026-05-04 10:13 | 52.60649 | -0.90419 | 25529 ft | 378 kts | 323° |
| 2026-05-04 10:13 | 52.62816 | -0.92861 | 25149 ft | 376 kts | 323° |
| 2026-05-04 10:14 | 52.64958 | -0.95246 | 24749 ft | 375 kts | 326° |
| 2026-05-04 10:14 | 52.67304 | -0.97215 | 24361 ft | 375 kts | 333° |
| 2026-05-04 10:16 | 52.83831 | -1.08963 | 19687 ft | 363 kts | 334° |
| 2026-05-04 10:16 | 52.86137 | -1.10642 | 19009 ft | 361 kts | 334° |
| 2026-05-04 10:16 | 52.88431 | -1.12317 | 18349 ft | 359 kts | 334° |
| 2026-05-04 10:16 | 52.90715 | -1.13987 | 17583 ft | 358 kts | 334° |
| 2026-05-04 10:17 | 52.92979 | -1.15646 | 16855 ft | 355 kts | 334° |
| 2026-05-04 10:17 | 52.95234 | -1.17300 | 16137 ft | 353 kts | 334° |
| 2026-05-04 10:19 | 53.10105 | -1.28253 | 12407 ft | 310 kts | 334° |
| 2026-05-04 10:19 | 53.12062 | -1.29702 | 11923 ft | 306 kts | 334° |
| 2026-05-04 10:19 | 53.14023 | -1.31155 | 11435 ft | 303 kts | 334° |
| 2026-05-04 10:19 | 53.15915 | -1.32558 | 11052 ft | 300 kts | 334° |
| 2026-05-04 10:20 | 53.17809 | -1.33964 | 10763 ft | 297 kts | 334° |
| 2026-05-04 10:20 | 53.19692 | -1.35363 | 10459 ft | 296 kts | 334° |
| 2026-05-04 10:20 | 53.21545 | -1.36741 | 10342 ft | 287 kts | 334° |
| 2026-05-04 10:20 | 53.23347 | -1.38081 | 10198 ft | 280 kts | 334° |
| 2026-05-04 10:21 | 53.25107 | -1.39392 | 10090 ft | 273 kts | 334° |
| 2026-05-04 10:21 | 53.26833 | -1.40680 | 9823 ft | 271 kts | 334° |
| 2026-05-04 10:21 | 53.28550 | -1.41962 | 9544 ft | 269 kts | 334° |
| 2026-05-04 10:21 | 53.30244 | -1.43228 | 9284 ft | 267 kts | 334° |
| 2026-05-04 10:22 | 53.33620 | -1.45754 | 8751 ft | 265 kts | 334° |
| 2026-05-04 10:22 | 53.35294 | -1.47009 | 8507 ft | 264 kts | 334° |
| 2026-05-04 10:22 | 53.36971 | -1.48265 | 8240 ft | 264 kts | 334° |
| 2026-05-04 10:23 | 53.38642 | -1.49518 | 7973 ft | 263 kts | 334° |
| 2026-05-04 10:23 | 53.40304 | -1.50766 | 7710 ft | 261 kts | 334° |
| 2026-05-04 10:25 | 53.52343 | -1.53388 | 6003 ft | 250 kts | 1° |
| 2026-05-04 10:25 | 53.54079 | -1.53313 | 5749 ft | 248 kts | 1° |
| 2026-05-04 10:25 | 53.55799 | -1.53242 | 5492 ft | 247 kts | 1° |
| 2026-05-04 10:25 | 53.57527 | -1.53173 | 5208 ft | 248 kts | 1° |
| 2026-05-04 10:26 | 53.59253 | -1.53105 | 4956 ft | 247 kts | 1° |
| 2026-05-04 10:26 | 53.60943 | -1.53040 | 4844 ft | 240 kts | 1° |
| 2026-05-04 10:26 | 53.62585 | -1.52976 | 4724 ft | 233 kts | 1° |
| 2026-05-04 10:26 | 53.64179 | -1.52915 | 4616 ft | 226 kts | 1° |
| 2026-05-04 10:27 | 53.65720 | -1.52800 | 4507 ft | 218 kts | 11° |
| 2026-05-04 10:27 | 53.67018 | -1.51656 | 4455 ft | 212 kts | 43° |
| 2026-05-04 10:27 | 53.68062 | -1.49847 | 4273 ft | 219 kts | 46° |
| 2026-05-04 10:27 | 53.69123 | -1.47971 | 4061 ft | 222 kts | 46° |
| 2026-05-04 10:28 | 53.69830 | -1.46722 | 3902 ft | 222 kts | 46° |
| 2026-05-04 10:28 | 53.71538 | -1.45054 | 3629 ft | 218 kts | 3° |
| 2026-05-04 10:28 | 53.72947 | -1.45749 | 3517 ft | 210 kts | 327° |
| 2026-05-04 10:28 | 53.74083 | -1.47153 | 3494 ft | 195 kts | 326° |
| 2026-05-04 10:29 | 53.75127 | -1.48469 | 3483 ft | 179 kts | 322° |
| 2026-05-04 10:29 | 53.75770 | -1.49388 | 3452 ft | 180 kts | 320° |
| 2026-05-04 10:29 | 53.76717 | -1.50823 | 3248 ft | 184 kts | 319° |
| 2026-05-04 10:29 | 53.77654 | -1.52268 | 3015 ft | 180 kts | 319° |
| 2026-05-04 10:30 | 53.78571 | -1.53685 | 2739 ft | 177 kts | 320° |
| 2026-05-04 10:30 | 53.79445 | -1.55038 | 2498 ft | 167 kts | 319° |
| 2026-05-04 10:30 | 53.80291 | -1.56344 | 2281 ft | 164 kts | 320° |
| 2026-05-04 10:30 | 53.81136 | -1.57647 | 2057 ft | 164 kts | 319° |
| 2026-05-04 10:31 | 53.81953 | -1.58909 | 1833 ft | 156 kts | 319° |
| 2026-05-04 10:31 | 53.82739 | -1.60122 | 1615 ft | 151 kts | 319° |
| 2026-05-04 10:32 | 53.86910 | -1.66545 | 670 ft | 19 kts | 317° |
| 2026-05-04 10:33 | 53.86971 | -1.66550 | 671 ft | 9 kts | 44° |
| 2026-05-04 10:33 | 53.86994 | -1.66443 | 672 ft | 12 kts | 107° |
| 2026-05-04 10:33 | 53.86940 | -1.66282 | 666 ft | 20 kts | 131° |
| 2026-05-04 10:33 | 53.86852 | -1.66143 | 666 ft | 12 kts | 137° |
| 2026-05-04 10:34 | 53.86816 | -1.66031 | 665 ft | 11 kts | 91° |
| 2026-05-04 10:34 | 53.86814 | -1.65904 | 664 ft | 8 kts | 91° |
| 2026-05-04 10:34 | 53.86813 | -1.65795 | 664 ft | 10 kts | 91° |
| 2026-05-04 10:34 | 53.86816 | -1.65656 | 663 ft | 13 kts | 91° |
| 2026-05-04 10:35 | 53.86815 | -1.65531 | 663 ft | 6 kts | 91° |
| 2026-05-04 10:35 | 53.86814 | -1.65455 | 662 ft | 7 kts | 91° |
| 2026-05-04 10:35 | 53.86825 | -1.65369 | 661 ft | 8 kts | 78° |
| 2026-05-04 10:35 | 53.86835 | -1.65284 | 661 ft | 6 kts | 31° |
| 2026-05-04 10:36 | 53.86870 | -1.65279 | 664 ft | 4 kts | 1° |
| 2026-05-04 10:36 | 53.86874 | -1.65278 | 664 ft | 0 kts | 1° |